sensor_id;sensor_type;location;lat;lon;timestamp;pressure;altitude;pressure_sealevel;temperature;humidity
12793;BME280;6460;42.684;23.260;2023-02-13T00:37:26;96318.75;;;0.68;100.00
12793;BME280;6460;42.684;23.260;2023-02-13T00:39:53;96310.66;;;0.53;100.00
12793;BME280;6460;42.684;23.260;2023-02-13T00:55:07;96319.03;;;0.45;100.00
12793;BME280;6460;42.684;23.260;2023-02-13T00:57:34;96321.06;;;0.60;100.00
12793;BME280;6460;42.684;23.260;2023-02-13T01:00:01;96335.09;;;0.38;100.00
12793;BME280;6460;42.684;23.260;2023-02-13T01:02:29;96338.53;;;0.61;100.00
12793;BME280;6460;42.684;23.260;2023-02-13T01:04:56;96339.50;;;0.81;100.00
12793;BME280;6460;42.684;23.260;2023-02-13T01:07:23;96340.81;;;0.52;100.00
12793;BME280;6460;42.684;23.260;2023-02-13T01:09:50;96331.28;;;0.51;100.00
12793;BME280;6460;42.684;23.260;2023-02-13T01:12:19;96329.72;;;0.55;100.00
12793;BME280;6460;42.684;23.260;2023-02-13T01:14:45;96334.50;;;0.31;100.00
12793;BME280;6460;42.684;23.260;2023-02-13T01:17:13;96334.00;;;0.61;100.00
12793;BME280;6460;42.684;23.260;2023-02-13T01:19:40;96329.22;;;0.58;100.00
12793;BME280;6460;42.684;23.260;2023-02-13T01:22:08;96335.41;;;0.42;100.00
12793;BME280;6460;42.684;23.260;2023-02-13T01:24:35;96334.50;;;0.31;100.00
12793;BME280;6460;42.684;23.260;2023-02-13T01:27:02;96336.81;;;0.49;100.00
12793;BME280;6460;42.684;23.260;2023-02-13T01:29:31;96335.19;;;0.22;100.00
12793;BME280;6460;42.684;23.260;2023-02-13T01:31:58;96337.72;;;0.60;100.00
12793;BME280;6460;42.684;23.260;2023-02-13T01:34:27;96338.13;;;0.47;100.00
12793;BME280;6460;42.684;23.260;2023-02-13T01:36:54;96341.06;;;0.50;100.00
12793;BME280;6460;42.684;23.260;2023-02-13T01:39:21;96341.41;;;0.59;100.00
12793;BME280;6460;42.684;23.260;2023-02-13T01:41:48;96341.13;;;0.82;100.00
12793;BME280;6460;42.684;23.260;2023-02-13T01:44:51;96348.88;;;0.67;100.00
12793;BME280;6460;42.684;23.260;2023-02-13T01:47:24;96343.69;;;0.77;100.00
12793;BME280;6460;42.684;23.260;2023-02-13T01:49:58;96347.25;;;0.88;100.00
12793;BME280;6460;42.684;23.260;2023-02-13T01:52:28;96347.78;;;0.90;100.00
12793;BME280;6460;42.684;23.260;2023-02-13T01:54:56;96351.94;;;0.81;100.00
12793;BME280;6460;42.684;23.260;2023-02-13T01:57:25;96357.31;;;0.86;100.00
12793;BME280;6460;42.684;23.260;2023-02-13T01:59:58;96358.88;;;1.14;100.00
12793;BME280;6460;42.684;23.260;2023-02-13T02:02:26;96355.72;;;1.17;100.00
12793;BME280;6460;42.684;23.260;2023-02-13T02:04:55;96358.88;;;1.14;100.00
12793;BME280;6460;42.684;23.260;2023-02-13T02:07:24;96352.94;;;1.01;100.00
12793;BME280;6460;42.684;23.260;2023-02-13T02:09:54;96345.31;;;0.78;100.00
12793;BME280;6460;42.684;23.260;2023-02-13T02:12:26;96349.91;;;1.20;100.00
12793;BME280;6460;42.684;23.260;2023-02-13T02:14:58;96344.28;;;1.11;100.00
12793;BME280;6460;42.684;23.260;2023-02-13T02:17:26;96347.78;;;1.17;100.00
12793;BME280;6460;42.684;23.260;2023-02-13T02:19:59;96344.81;;;1.08;100.00
12793;BME280;6460;42.684;23.260;2023-02-13T02:26:08;96350.34;;;0.53;100.00
12793;BME280;6460;42.684;23.260;2023-02-13T02:28:57;96349.41;;;0.91;100.00
12793;BME280;6460;42.684;23.260;2023-02-13T02:31:53;96352.34;;;0.94;100.00
12793;BME280;6460;42.684;23.260;2023-02-13T02:34:32;96345.78;;;0.70;100.00
12793;BME280;6460;42.684;23.260;2023-02-13T02:37:15;96347.09;;;0.99;100.00
12793;BME280;6460;42.684;23.260;2023-02-13T02:39:49;96349.38;;;1.18;100.00
12793;BME280;6460;42.684;23.260;2023-02-13T02:42:29;96343.50;;;1.11;100.00
12793;BME280;6460;42.684;23.260;2023-02-13T02:45:04;96364.75;;;1.21;100.00
12793;BME280;6460;42.684;23.260;2023-02-13T02:47:41;96365.44;;;0.79;100.00
12793;BME280;6460;42.684;23.260;2023-02-13T02:50:33;96369.38;;;1.03;100.00
12793;BME280;6460;42.684;23.260;2023-02-13T02:53:12;96366.44;;;0.73;100.00
12793;BME280;6460;42.684;23.260;2023-02-13T02:55:47;96377.28;;;0.77;100.00
12793;BME280;6460;42.684;23.260;2023-02-13T02:58:19;96367.44;;;0.94;100.00
12793;BME280;6460;42.684;23.260;2023-02-13T03:01:19;96365.75;;;0.61;100.00
12793;BME280;6460;42.684;23.260;2023-02-13T03:04:14;96381.63;;;0.61;100.00
12793;BME280;6460;42.684;23.260;2023-02-13T03:07:03;96374.88;;;0.70;100.00
12793;BME280;6460;42.684;23.260;2023-02-13T03:09:36;96374.31;;;0.68;100.00
12793;BME280;6460;42.684;23.260;2023-02-13T03:12:25;96369.81;;;0.69;100.00
12793;BME280;6460;42.684;23.260;2023-02-13T03:15:12;96369.66;;;0.80;100.00
12793;BME280;6460;42.684;23.260;2023-02-13T03:17:39;96372.97;;;0.92;100.00
12793;BME280;6460;42.684;23.260;2023-02-13T03:20:34;96370.28;;;0.61;100.00
12793;BME280;6460;42.684;23.260;2023-02-13T03:23:45;96367.94;;;0.42;100.00
12793;BME280;6460;42.684;23.260;2023-02-13T03:26:31;96370.16;;;0.29;100.00
12793;BME280;6460;42.684;23.260;2023-02-13T03:29:15;96378.97;;;0.13;100.00
12793;BME280;6460;42.684;23.260;2023-02-13T03:32:22;96377.19;;;0.18;100.00
12793;BME280;6460;42.684;23.260;2023-02-13T03:34:56;96379.88;;;0.45;100.00
12793;BME280;6460;42.684;23.260;2023-02-13T03:37:49;96380.38;;;0.64;100.00
12793;BME280;6460;42.684;23.260;2023-02-13T03:40:26;96377.34;;;0.55;100.00
12793;BME280;6460;42.684;23.260;2023-02-13T03:42:59;96372.78;;;0.72;100.00
12793;BME280;6460;42.684;23.260;2023-02-13T03:45:31;96363.44;;;0.43;100.00
12793;BME280;6460;42.684;23.260;2023-02-13T03:48:21;96371.09;;;0.18;100.00
12793;BME280;6460;42.684;23.260;2023-02-13T03:51:08;96380.19;;;0.27;100.00
12793;BME280;6460;42.684;23.260;2023-02-13T03:53:37;96368.25;;;0.46;100.00
12793;BME280;6460;42.684;23.260;2023-02-13T03:56:08;96367.31;;;0.35;100.00
12793;BME280;6460;42.684;23.260;2023-02-13T03:58:56;96380.56;;;0.57;100.00
12793;BME280;6460;42.684;23.260;2023-02-13T04:01:44;96359.09;;;0.53;100.00
12793;BME280;6460;42.684;23.260;2023-02-13T04:04:16;96368.81;;;0.75;100.00
12793;BME280;6460;42.684;23.260;2023-02-13T04:06:50;96374.97;;;0.53;100.00
12793;BME280;6460;42.684;23.260;2023-02-13T04:09:20;96369.13;;;0.78;100.00
12793;BME280;6460;42.684;23.260;2023-02-13T04:11:53;96363.34;;;0.81;100.00
12793;BME280;6460;42.684;23.260;2023-02-13T04:14:26;96379.25;;;0.16;100.00
12793;BME280;6460;42.684;23.260;2023-02-13T04:16:58;96381.34;;;0.36;100.00
12793;BME280;6460;42.684;23.260;2023-02-13T04:19:29;96379.44;;;0.10;100.00
12793;BME280;6460;42.684;23.260;2023-02-13T04:21:59;96380.84;;;-0.05;100.00
12793;BME280;6460;42.684;23.260;2023-02-13T04:24:29;96373.41;;;-0.08;100.00
12793;BME280;6460;42.684;23.260;2023-02-13T04:26:57;96377.00;;;0.03;100.00
12793;BME280;6460;42.684;23.260;2023-02-13T04:29:25;96380.13;;;0.00;100.00
12793;BME280;6460;42.684;23.260;2023-02-13T04:31:52;96380.50;;;0.09;100.00
12793;BME280;6460;42.684;23.260;2023-02-13T04:34:20;96385.34;;;0.17;100.00
12793;BME280;6460;42.684;23.260;2023-02-13T04:36:47;96374.72;;;0.33;100.00
12793;BME280;6460;42.684;23.260;2023-02-13T04:39:14;96375.75;;;0.54;100.00
12793;BME280;6460;42.684;23.260;2023-02-13T04:41:43;96376.94;;;0.41;100.00
12793;BME280;6460;42.684;23.260;2023-02-13T04:44:10;96376.97;;;0.68;100.00
12793;BME280;6460;42.684;23.260;2023-02-13T04:46:37;96376.66;;;0.65;100.00
12793;BME280;6460;42.684;23.260;2023-02-13T04:49:05;96374.47;;;0.83;100.00
12793;BME280;6460;42.684;23.260;2023-02-13T04:51:32;96374.56;;;0.93;100.00
12793;BME280;6460;42.684;23.260;2023-02-13T04:53:59;96372.56;;;1.05;100.00
12793;BME280;6460;42.684;23.260;2023-02-13T04:56:26;96378.81;;;0.94;100.00
12793;BME280;6460;42.684;23.260;2023-02-13T04:58:55;96389.13;;;1.23;100.00
12793;BME280;6460;42.684;23.260;2023-02-13T05:01:22;96382.91;;;1.39;100.00
12793;BME280;6460;42.684;23.260;2023-02-13T05:03:49;96389.63;;;1.51;100.00
12793;BME280;6460;42.684;23.260;2023-02-13T05:06:16;96394.97;;;1.56;100.00
12793;BME280;6460;42.684;23.260;2023-02-13T05:08:43;96403.56;;;1.69;100.00
12793;BME280;6460;42.684;23.260;2023-02-13T05:11:11;96398.75;;;1.66;100.00
12793;BME280;6460;42.684;23.260;2023-02-13T05:13:38;96404.09;;;1.71;100.00
12793;BME280;6460;42.684;23.260;2023-02-13T05:16:07;96395.41;;;1.80;100.00
12793;BME280;6460;42.684;23.260;2023-02-13T05:18:33;96393.00;;;1.42;100.00
12793;BME280;6460;42.684;23.260;2023-02-13T05:21:00;96400.47;;;1.18;100.00
12793;BME280;6460;42.684;23.260;2023-02-13T05:23:45;96409.28;;;1.55;100.00
12793;BME280;6460;42.684;23.260;2023-02-13T05:26:12;96404.78;;;1.56;98.24
12793;BME280;6460;42.684;23.260;2023-02-13T05:28:39;96399.09;;;1.79;97.67
12793;BME280;6460;42.684;23.260;2023-02-13T05:31:25;96401.72;;;1.74;96.35
12793;BME280;6460;42.684;23.260;2023-02-13T05:33:52;96411.91;;;1.87;95.82
12793;BME280;6460;42.684;23.260;2023-02-13T05:36:19;96408.16;;;1.88;95.48
12793;BME280;6460;42.684;23.260;2023-02-13T05:38:46;96410.13;;;2.03;94.66
12793;BME280;6460;42.684;23.260;2023-02-13T05:41:13;96411.47;;;2.05;94.25
12793;BME280;6460;42.684;23.260;2023-02-13T05:43:40;96415.50;;;2.13;92.73
12793;BME280;6460;42.684;23.260;2023-02-13T05:46:08;96412.81;;;2.08;91.86
12793;BME280;6460;42.684;23.260;2023-02-13T05:48:37;96411.00;;;2.13;91.94
12793;BME280;6460;42.684;23.260;2023-02-13T05:51:04;96421.03;;;2.06;92.63
12793;BME280;6460;42.684;23.260;2023-02-13T05:53:32;96423.75;;;2.17;91.84
12793;BME280;6460;42.684;23.260;2023-02-13T05:56:00;96419.19;;;2.12;90.85
12793;BME280;6460;42.684;23.260;2023-02-13T05:58:28;96421.63;;;2.19;91.46
12793;BME280;6460;42.684;23.260;2023-02-13T06:00:55;96431.72;;;2.22;91.61
12793;BME280;6460;42.684;23.260;2023-02-13T06:03:23;96427.22;;;2.27;91.09
12793;BME280;6460;42.684;23.260;2023-02-13T06:05:52;96418.91;;;2.08;92.22
12793;BME280;6460;42.684;23.260;2023-02-13T06:08:19;96433.06;;;2.24;92.29
12793;BME280;6460;42.684;23.260;2023-02-13T06:10:47;96437.63;;;2.34;91.20
12793;BME280;6460;42.684;23.260;2023-02-13T06:13:14;96431.78;;;2.32;91.09
12793;BME280;6460;42.684;23.260;2023-02-13T06:15:42;96426.72;;;2.30;90.85
12793;BME280;6460;42.684;23.260;2023-02-13T06:18:10;96435.97;;;2.23;91.05
12793;BME280;6460;42.684;23.260;2023-02-13T06:20:37;96439.28;;;2.45;90.62
12793;BME280;6460;42.684;23.260;2023-02-13T06:23:06;96445.09;;;2.42;90.47
12793;BME280;6460;42.684;23.260;2023-02-13T06:25:33;96445.09;;;2.42;89.00
12793;BME280;6460;42.684;23.260;2023-02-13T06:28:00;96446.00;;;2.16;89.53
12793;BME280;6460;42.684;23.260;2023-02-13T06:30:28;96454.75;;;1.79;89.60
12793;BME280;6460;42.684;23.260;2023-02-13T06:32:55;96447.28;;;1.71;90.43
12793;BME280;6460;42.684;23.260;2023-02-13T06:35:23;96451.09;;;1.53;92.10
12793;BME280;6460;42.684;23.260;2023-02-13T06:37:50;96452.41;;;1.83;92.68
12793;BME280;6460;42.684;23.260;2023-02-13T06:40:19;96451.69;;;1.92;92.03
12793;BME280;6460;42.684;23.260;2023-02-13T06:42:46;96455.44;;;2.01;91.71
12793;BME280;6460;42.684;23.260;2023-02-13T06:45:14;96461.41;;;2.13;91.66
12793;BME280;6460;42.684;23.260;2023-02-13T06:47:42;96444.44;;;2.20;91.00
12793;BME280;6460;42.684;23.260;2023-02-13T06:50:10;96450.34;;;2.32;90.46
12793;BME280;6460;42.684;23.260;2023-02-13T06:52:37;96456.53;;;2.05;89.84
12793;BME280;6460;42.684;23.260;2023-02-13T06:55:05;96449.03;;;2.34;90.11
12793;BME280;6460;42.684;23.260;2023-02-13T06:57:33;96447.41;;;2.23;89.19
12793;BME280;6460;42.684;23.260;2023-02-13T07:00:00;96455.00;;;2.14;89.66
12793;BME280;6460;42.684;23.260;2023-02-13T07:02:30;96447.72;;;2.37;89.93
12793;BME280;6460;42.684;23.260;2023-02-13T07:04:57;96453.81;;;1.90;91.31
12793;BME280;6460;42.684;23.260;2023-02-13T07:07:24;96450.66;;;1.98;91.33
12793;BME280;6460;42.684;23.260;2023-02-13T07:09:52;96443.94;;;2.28;91.83
12793;BME280;6460;42.684;23.260;2023-02-13T07:12:19;96447.53;;;1.70;91.64
12793;BME280;6460;42.684;23.260;2023-02-13T07:14:47;96450.47;;;1.41;92.36
12793;BME280;6460;42.684;23.260;2023-02-13T07:17:15;96445.34;;;1.93;92.77
12793;BME280;6460;42.684;23.260;2023-02-13T07:19:42;96449.53;;;1.89;92.81
12793;BME280;6460;42.684;23.260;2023-02-13T07:22:09;96450.53;;;1.78;92.76
12793;BME280;6460;42.684;23.260;2023-02-13T07:24:36;96454.22;;;1.77;92.89
12793;BME280;6460;42.684;23.260;2023-02-13T07:27:04;96460.38;;;2.25;99.19
12793;BME280;6460;42.684;23.260;2023-02-13T07:29:33;96451.09;;;2.22;97.50
12793;BME280;6460;42.684;23.260;2023-02-13T07:32:03;96459.56;;;2.19;94.63
12793;BME280;6460;42.684;23.260;2023-02-13T07:34:31;96455.63;;;1.85;92.63
12793;BME280;6460;42.684;23.260;2023-02-13T07:36:58;96460.13;;;1.84;93.68
12793;BME280;6460;42.684;23.260;2023-02-13T07:39:25;96464.19;;;1.97;93.74
12793;BME280;6460;42.684;23.260;2023-02-13T07:41:52;96455.16;;;1.98;93.64
12793;BME280;6460;42.684;23.260;2023-02-13T07:44:19;96451.00;;;2.07;92.32
12793;BME280;6460;42.684;23.260;2023-02-13T07:46:47;96463.41;;;2.01;92.62
12793;BME280;6460;42.684;23.260;2023-02-13T07:49:15;96453.38;;;2.03;92.50
12793;BME280;6460;42.684;23.260;2023-02-13T07:51:42;96453.91;;;2.05;91.97
12793;BME280;6460;42.684;23.260;2023-02-13T07:54:09;96460.53;;;2.08;92.70
12793;BME280;6460;42.684;23.260;2023-02-13T07:56:37;96458.28;;;1.53;94.49
12793;BME280;6460;42.684;23.260;2023-02-13T07:59:04;96458.81;;;1.55;95.21
12793;BME280;6460;42.684;23.260;2023-02-13T08:01:31;96457.09;;;1.71;94.95
12793;BME280;6460;42.684;23.260;2023-02-13T08:03:58;96450.53;;;1.78;93.97
12793;BME280;6460;42.684;23.260;2023-02-13T08:06:26;96455.44;;;2.01;93.75
12793;BME280;6460;42.684;23.260;2023-02-13T08:08:53;96451.97;;;1.96;92.93
12793;BME280;6460;42.684;23.260;2023-02-13T08:11:34;96470.22;;;1.87;92.67
12793;BME280;6460;42.684;23.260;2023-02-13T08:14:20;96462.28;;;1.92;92.68
12793;BME280;6460;42.684;23.260;2023-02-13T08:16:47;96455.00;;;2.09;92.24
12793;BME280;6460;42.684;23.260;2023-02-13T08:19:14;96450.72;;;2.08;92.94
12793;BME280;6460;42.684;23.260;2023-02-13T08:21:43;96450.88;;;2.29;92.39
12793;BME280;6460;42.684;23.260;2023-02-13T08:24:10;96445.50;;;2.19;91.71
12793;BME280;6460;42.684;23.260;2023-02-13T08:26:38;96453.44;;;2.19;94.49
12793;BME280;6460;42.684;23.260;2023-02-13T08:29:06;96452.69;;;1.86;92.43
12793;BME280;6460;42.684;23.260;2023-02-13T08:31:33;96451.75;;;2.02;92.88
12793;BME280;6460;42.684;23.260;2023-02-13T08:34:00;96456.53;;;2.05;93.17
12793;BME280;6460;42.684;23.260;2023-02-13T08:36:27;96455.28;;;2.13;93.31
12793;BME280;6460;42.684;23.260;2023-02-13T08:38:56;96446.03;;;2.21;93.01
12793;BME280;6460;42.684;23.260;2023-02-13T08:41:23;96455.56;;;2.17;92.98
12793;BME280;6460;42.684;23.260;2023-02-13T08:43:52;96445.03;;;2.32;93.30
12793;BME280;6460;42.684;23.260;2023-02-13T08:46:19;96449.03;;;2.34;93.14
12793;BME280;6460;42.684;23.260;2023-02-13T08:48:47;96449.84;;;2.35;94.00
12793;BME280;6460;42.684;23.260;2023-02-13T08:51:14;96448.81;;;2.46;92.90
12793;BME280;6460;42.684;23.260;2023-02-13T08:53:41;96461.03;;;2.42;92.37
12793;BME280;6460;42.684;23.260;2023-02-13T08:56:10;96462.59;;;2.43;92.77
12793;BME280;6460;42.684;23.260;2023-02-13T08:58:37;96454.41;;;2.44;92.70
12793;BME280;6460;42.684;23.260;2023-02-13T09:01:06;96459.47;;;2.56;91.61
12793;BME280;6460;42.684;23.260;2023-02-13T09:03:33;96446.78;;;2.63;91.14
12793;BME280;6460;42.684;23.260;2023-02-13T09:06:01;96455.31;;;2.70;90.67
12793;BME280;6460;42.684;23.260;2023-02-13T09:08:28;96451.09;;;2.74;90.67
12793;BME280;6460;42.684;23.260;2023-02-13T09:10:56;96449.50;;;2.78;90.59
12793;BME280;6460;42.684;23.260;2023-02-13T09:13:26;96461.75;;;2.89;90.92
12793;BME280;6460;42.684;23.260;2023-02-13T09:15:53;96452.78;;;3.05;90.29
12793;BME280;6460;42.684;23.260;2023-02-13T09:18:20;96461.94;;;2.16;90.13
12793;BME280;6460;42.684;23.260;2023-02-13T09:20:47;96447.44;;;2.90;89.60
12793;BME280;6460;42.684;23.260;2023-02-13T09:23:14;96447.00;;;3.34;88.50
12793;BME280;6460;42.684;23.260;2023-02-13T09:25:41;96450.19;;;3.36;87.65
12793;BME280;6460;42.684;23.260;2023-02-13T09:28:08;96453.91;;;3.35;88.01
12793;BME280;6460;42.684;23.260;2023-02-13T09:30:37;96445.69;;;3.61;87.61
12793;BME280;6460;42.684;23.260;2023-02-13T09:33:09;96451.28;;;3.50;86.65
12793;BME280;6460;42.684;23.260;2023-02-13T09:35:36;96440.91;;;3.43;88.23
12793;BME280;6460;42.684;23.260;2023-02-13T09:38:06;96446.22;;;3.84;87.27
12793;BME280;6460;42.684;23.260;2023-02-13T09:40:36;96442.75;;;3.58;86.16
12793;BME280;6460;42.684;23.260;2023-02-13T09:43:10;96441.13;;;3.27;85.30
12793;BME280;6460;42.684;23.260;2023-02-13T09:45:41;96443.84;;;3.77;85.21
12793;BME280;6460;42.684;23.260;2023-02-13T09:48:16;96427.34;;;3.85;83.60
12793;BME280;6460;42.684;23.260;2023-02-13T09:50:44;96429.47;;;3.98;83.50
12793;BME280;6460;42.684;23.260;2023-02-13T09:53:20;96431.59;;;3.91;82.88
12793;BME280;6460;42.684;23.260;2023-02-13T09:55:54;96426.53;;;4.10;82.40
12793;BME280;6460;42.684;23.260;2023-02-13T09:58:35;96414.22;;;4.39;81.62
12793;BME280;6460;42.684;23.260;2023-02-13T10:01:18;96405.22;;;4.15;82.79
12793;BME280;6460;42.684;23.260;2023-02-13T10:03:53;96405.53;;;3.98;82.62
12793;BME280;6460;42.684;23.260;2023-02-13T10:06:28;96401.53;;;4.11;82.69
12793;BME280;6460;42.684;23.260;2023-02-13T10:09:05;96413.78;;;3.87;82.84
12793;BME280;6460;42.684;23.260;2023-02-13T10:11:45;96401.75;;;4.19;82.97
12793;BME280;6460;42.684;23.260;2023-02-13T10:14:18;96402.16;;;4.62;81.56
12793;BME280;6460;42.684;23.260;2023-02-13T10:16:50;96393.28;;;4.82;80.42
12793;BME280;6460;42.684;23.260;2023-02-13T10:19:30;96391.94;;;4.84;78.35
12793;BME280;6460;42.684;23.260;2023-02-13T10:22:04;96383.84;;;4.99;79.96
12793;BME280;6460;42.684;23.260;2023-02-13T10:24:36;96384.13;;;4.39;81.01
12793;BME280;6460;42.684;23.260;2023-02-13T10:27:18;96378.19;;;4.57;80.14
12793;BME280;6460;42.684;23.260;2023-02-13T10:29:50;96372.13;;;4.41;79.69
12793;BME280;6460;42.684;23.260;2023-02-13T10:32:44;96360.78;;;5.23;79.24
12793;BME280;6460;42.684;23.260;2023-02-13T10:35:21;96357.16;;;5.43;78.35
12793;BME280;6460;42.684;23.260;2023-02-13T10:37:53;96353.06;;;5.84;76.58
12793;BME280;6460;42.684;23.260;2023-02-13T10:40:22;96361.88;;;5.90;75.06
12793;BME280;6460;42.684;23.260;2023-02-13T10:42:58;96346.56;;;6.24;73.61
12793;BME280;6460;42.684;23.260;2023-02-13T10:45:48;96337.66;;;6.53;72.07
12793;BME280;6460;42.684;23.260;2023-02-13T10:48:34;96344.63;;;6.54;71.61
12793;BME280;6460;42.684;23.260;2023-02-13T10:51:10;96340.28;;;5.87;72.80
12793;BME280;6460;42.684;23.260;2023-02-13T10:53:52;96347.13;;;5.64;72.21
12793;BME280;6460;42.684;23.260;2023-02-13T10:56:26;96336.63;;;6.72;70.61
12793;BME280;6460;42.684;23.260;2023-02-13T10:59:20;96336.47;;;6.16;70.17
12793;BME280;6460;42.684;23.260;2023-02-13T11:01:54;96320.06;;;6.04;71.35
12793;BME280;6460;42.684;23.260;2023-02-13T11:04:24;96323.19;;;6.35;70.36
12793;BME280;6460;42.684;23.260;2023-02-13T11:06:55;96319.19;;;6.56;70.74
12793;BME280;6460;42.684;23.260;2023-02-13T11:09:23;96320.38;;;7.06;67.88
12793;BME280;6460;42.684;23.260;2023-02-13T11:11:51;96313.56;;;7.32;66.31
12793;BME280;6460;42.684;23.260;2023-02-13T11:14:20;96309.41;;;7.08;65.97
12793;BME280;6460;42.684;23.260;2023-02-13T11:16:55;96305.84;;;7.44;66.80
12793;BME280;6460;42.684;23.260;2023-02-13T11:19:32;96301.78;;;7.66;65.06
12793;BME280;6460;42.684;23.260;2023-02-13T11:22:03;96296.63;;;7.83;64.82
12793;BME280;6460;42.684;23.260;2023-02-13T11:24:31;96281.19;;;8.21;63.22
12793;BME280;6460;42.684;23.260;2023-02-13T11:27:01;96277.19;;;8.59;63.47
12793;BME280;6460;42.684;23.260;2023-02-13T11:29:34;96271.47;;;8.88;61.78
12793;BME280;6460;42.684;23.260;2023-02-13T11:32:16;96262.13;;;8.99;60.19
12793;BME280;6460;42.684;23.260;2023-02-13T11:34:46;96262.13;;;8.49;60.46
12793;BME280;6460;42.684;23.260;2023-02-13T11:37:26;96261.34;;;8.49;60.55
12793;BME280;6460;42.684;23.260;2023-02-13T11:39:55;96247.72;;;8.95;60.67
12793;BME280;6460;42.684;23.260;2023-02-13T11:42:28;96251.06;;;9.00;59.19
12793;BME280;6460;42.684;23.260;2023-02-13T11:44:59;96243.06;;;9.53;56.95
12793;BME280;6460;42.684;23.260;2023-02-13T11:47:39;96253.13;;;8.45;58.00
12793;BME280;6460;42.684;23.260;2023-02-13T11:50:20;96234.03;;;9.19;56.32
12793;BME280;6460;42.684;23.260;2023-02-13T11:52:54;96219.31;;;9.16;55.46
12793;BME280;6460;42.684;23.260;2023-02-13T11:55:29;96213.94;;;9.38;55.92
12793;BME280;6460;42.684;23.260;2023-02-13T11:57:59;96224.91;;;8.84;55.78
12793;BME280;6460;42.684;23.260;2023-02-13T12:00:31;96209.19;;;8.19;55.92
12793;BME280;6460;42.684;23.260;2023-02-13T12:03:04;96217.91;;;8.25;57.06
12793;BME280;6460;42.684;23.260;2023-02-13T12:06:02;96201.47;;;9.12;55.17
12793;BME280;6460;42.684;23.260;2023-02-13T12:08:30;96203.59;;;9.01;54.88
12793;BME280;6460;42.684;23.260;2023-02-13T12:10:59;96197.97;;;9.33;53.72
12793;BME280;6460;42.684;23.260;2023-02-13T12:13:30;96188.91;;;9.21;54.00
12793;BME280;6460;42.684;23.260;2023-02-13T12:16:01;96195.34;;;9.20;54.87
12793;BME280;6460;42.684;23.260;2023-02-13T12:18:31;96189.19;;;9.81;52.10
12793;BME280;6460;42.684;23.260;2023-02-13T12:21:22;96183.50;;;10.39;50.22
12793;BME280;6460;42.684;23.260;2023-02-13T12:23:58;96187.94;;;10.43;50.80
12793;BME280;6460;42.684;23.260;2023-02-13T12:26:30;96186.81;;;10.27;48.76
12793;BME280;6460;42.684;23.260;2023-02-13T12:29:21;96179.25;;;9.81;49.54
12793;BME280;6460;42.684;23.260;2023-02-13T12:32:12;96175.72;;;9.72;50.34
12793;BME280;6460;42.684;23.260;2023-02-13T12:37:56;96173.41;;;9.88;50.05
12793;BME280;6460;42.684;23.260;2023-02-13T12:40:35;96165.09;;;9.58;49.79
12793;BME280;6460;42.684;23.260;2023-02-13T12:46:10;96172.75;;;10.30;48.98
12793;BME280;6460;42.684;23.260;2023-02-13T12:48:48;96155.34;;;10.28;48.11
12793;BME280;6460;42.684;23.260;2023-02-13T12:51:27;96150.31;;;10.35;47.51
12793;BME280;6460;42.684;23.260;2023-02-13T12:54:18;96155.38;;;10.36;47.11
12793;BME280;6460;42.684;23.260;2023-02-13T12:56:58;96147.75;;;10.21;47.19
12793;BME280;6460;42.684;23.260;2023-02-13T12:59:35;96144.31;;;10.38;47.14
12793;BME280;6460;42.684;23.260;2023-02-13T13:02:41;96143.22;;;10.65;46.38
12793;BME280;6460;42.684;23.260;2023-02-13T13:05:25;96144.84;;;10.00;47.57
12793;BME280;6460;42.684;23.260;2023-02-13T13:11:11;96130.88;;;10.46;47.35
12793;BME280;6460;42.684;23.260;2023-02-13T13:13:51;96131.81;;;10.50;46.62
12793;BME280;6460;42.684;23.260;2023-02-13T13:16:32;96139.88;;;10.68;46.33
12793;BME280;6460;42.684;23.260;2023-02-13T13:19:09;96124.88;;;10.49;47.30
12793;BME280;6460;42.684;23.260;2023-02-13T13:21:46;96123.59;;;10.38;46.70
12793;BME280;6460;42.684;23.260;2023-02-13T13:24:25;96124.53;;;10.68;46.17
12793;BME280;6460;42.684;23.260;2023-02-13T13:26:58;96119.78;;;10.22;47.02
12793;BME280;6460;42.684;23.260;2023-02-13T13:29:28;96120.41;;;10.88;45.36
12793;BME280;6460;42.684;23.260;2023-02-13T13:32:00;96121.56;;;10.52;45.88
12793;BME280;6460;42.684;23.260;2023-02-13T13:34:29;96120.44;;;10.53;46.69
12793;BME280;6460;42.684;23.260;2023-02-13T13:37:01;96118.38;;;10.33;46.59
12793;BME280;6460;42.684;23.260;2023-02-13T13:39:39;96118.22;;;10.64;46.64
12793;BME280;6460;42.684;23.260;2023-02-13T13:42:16;96124.72;;;10.46;47.11
12793;BME280;6460;42.684;23.260;2023-02-13T13:44:59;96114.88;;;10.50;46.36
12793;BME280;6460;42.684;23.260;2023-02-13T13:47:44;96117.09;;;10.31;47.40
12793;BME280;6460;42.684;23.260;2023-02-13T13:50:19;96112.06;;;10.46;46.39
12793;BME280;6460;42.684;23.260;2023-02-13T13:53:09;96102.56;;;10.32;47.36
12793;BME280;6460;42.684;23.260;2023-02-13T13:55:58;96103.84;;;10.17;48.04
12793;BME280;6460;42.684;23.260;2023-02-13T13:58:39;96107.63;;;10.42;47.39
12793;BME280;6460;42.684;23.260;2023-02-13T14:01:17;96110.84;;;9.79;48.77
12793;BME280;6460;42.684;23.260;2023-02-13T14:03:45;96103.81;;;9.61;49.21
12793;BME280;6460;42.684;23.260;2023-02-13T14:06:14;96107.28;;;9.52;49.41
12793;BME280;6460;42.684;23.260;2023-02-13T14:09:04;96112.09;;;9.73;49.17
12793;BME280;6460;42.684;23.260;2023-02-13T14:11:43;96104.16;;;9.68;49.01
12793;BME280;6460;42.684;23.260;2023-02-13T14:17:51;96101.13;;;9.52;49.67
12793;BME280;6460;42.684;23.260;2023-02-13T14:23:21;96097.00;;;10.11;48.34
12793;BME280;6460;42.684;23.260;2023-02-13T14:26:17;96087.03;;;10.03;48.05
12793;BME280;6460;42.684;23.260;2023-02-13T14:28:56;96085.13;;;9.95;48.08
12793;BME280;6460;42.684;23.260;2023-02-13T14:31:25;96083.16;;;9.61;49.21
12793;BME280;6460;42.684;23.260;2023-02-13T14:33:56;96085.34;;;9.50;49.19
12793;BME280;6460;42.684;23.260;2023-02-13T14:36:26;96088.94;;;9.46;49.67
12793;BME280;6460;42.684;23.260;2023-02-13T14:39:01;96081.44;;;9.26;50.25
12793;BME280;6460;42.684;23.260;2023-02-13T14:41:41;96085.13;;;8.99;50.51
12793;BME280;6460;42.684;23.260;2023-02-13T14:44:15;96082.59;;;8.72;51.71
12793;BME280;6460;42.684;23.260;2023-02-13T14:46:45;96083.81;;;9.19;51.25